createdAt,value
2024-01-20T00:00:16.080Z,102624.66
2024-01-20T00:02:58.928Z,102627.34
2024-01-20T00:05:29.525Z,102624.69
2024-01-20T00:08:16.977Z,102628.28
2024-01-20T00:10:47.026Z,102630.03
2024-01-20T00:13:14.400Z,102628.28
2024-01-20T00:15:41.019Z,102627.41
2024-01-20T00:18:08.463Z,102638.06
2024-01-20T00:20:35.818Z,102634.53
2024-01-20T00:23:07.023Z,102642.50
2024-01-20T00:25:36.094Z,102639.88
2024-01-20T00:28:05.252Z,102638.97
2024-01-20T00:30:31.920Z,102638.97
2024-01-20T00:32:59.435Z,102639.88
2024-01-20T00:35:26.097Z,102645.16
2024-01-20T00:37:52.826Z,102638.06
2024-01-20T00:40:19.503Z,102635.44
2024-01-20T00:42:46.091Z,102638.13
2024-01-20T00:45:12.898Z,102634.59
2024-01-20T00:47:40.404Z,102638.09
2024-01-20T00:50:08.289Z,102633.66
2024-01-20T00:52:35.523Z,102638.06
2024-01-20T00:55:02.114Z,102637.16
2024-01-20T00:57:28.928Z,102632.75
2024-01-20T00:59:56.681Z,102638.94
2024-01-20T01:02:25.871Z,102631.88
2024-01-20T01:04:52.776Z,102631.03
2024-01-20T01:07:19.470Z,102631.91
2024-01-20T01:09:46.064Z,102624.84
2024-01-20T01:12:13.153Z,102642.53
2024-01-20T01:14:40.010Z,102638.09
2024-01-20T01:17:07.378Z,102628.38
2024-01-20T01:19:34.557Z,102634.56
2024-01-20T01:22:01.220Z,102632.78
2024-01-20T01:24:27.816Z,102639.88
2024-01-20T01:26:54.456Z,102638.97
2024-01-20T01:29:21.189Z,102634.56
2024-01-20T01:31:48.004Z,102637.22
2024-01-20T01:34:14.950Z,102646.03
2024-01-20T01:36:41.894Z,102646.00
2024-01-20T01:39:08.474Z,102644.22
2024-01-20T01:41:35.358Z,102653.09
2024-01-20T01:44:04.162Z,102654.88
2024-01-20T01:46:31.504Z,102663.75
2024-01-20T01:48:58.631Z,102660.22
2024-01-20T01:51:25.338Z,102656.72
2024-01-20T01:53:52.757Z,102663.81
2024-01-20T01:56:21.191Z,102670.00
2024-01-20T01:58:48.112Z,102661.16
2024-01-20T02:01:15.256Z,102666.47
2024-01-20T02:03:42.087Z,102684.16
2024-01-20T02:06:08.966Z,102675.31
2024-01-20T02:08:36.896Z,102681.50
2024-01-20T02:11:03.920Z,102678.84
2024-01-20T02:13:31.312Z,102681.50
2024-01-20T02:15:58.506Z,102688.56
2024-01-20T02:18:25.349Z,102691.25
2024-01-20T02:20:52.058Z,102685.06
2024-01-20T02:23:18.809Z,102682.41
2024-01-20T02:25:48.890Z,102685.97
2024-01-20T02:28:18.425Z,102673.59
2024-01-20T02:30:52.680Z,102678.03
2024-01-20T02:33:27.312Z,102676.25
2024-01-20T02:36:09.840Z,102674.47
2024-01-20T02:38:46.644Z,102682.41
2024-01-20T02:41:22.563Z,102679.75
2024-01-20T02:44:03.546Z,102684.19
2024-01-20T02:46:40.254Z,102685.09
2024-01-20T02:49:21.638Z,102684.22
2024-01-20T02:51:54.018Z,102683.31
2024-01-20T02:54:25.274Z,102702.78
2024-01-20T02:56:57.785Z,102701.00
2024-01-20T03:02:48.824Z,102692.16
2024-01-20T03:05:15.526Z,102696.59
2024-01-20T03:07:42.164Z,102686.88
2024-01-20T03:10:09.230Z,102695.75
2024-01-20T03:12:36.079Z,102690.47
2024-01-20T03:15:03.046Z,102690.44
2024-01-20T03:17:30.405Z,102691.31
2024-01-20T03:19:57.293Z,102698.41
2024-01-20T03:22:23.960Z,102697.53
2024-01-20T03:24:50.621Z,102711.69
2024-01-20T03:27:20.282Z,102714.31
2024-01-20T03:29:46.992Z,102714.31
2024-01-20T03:32:13.813Z,102717.84
2024-01-20T03:34:40.582Z,102707.25
2024-01-20T03:37:07.404Z,102701.09
2024-01-20T03:39:34.078Z,102708.19
2024-01-20T03:42:03.142Z,102713.50
2024-01-20T03:44:30.391Z,102711.75
2024-01-20T03:46:57.016Z,102704.66
2024-01-20T03:49:23.710Z,102711.75
2024-01-20T03:51:50.757Z,102716.16
2024-01-20T03:54:17.454Z,102715.28
2024-01-20T03:56:47.051Z,102717.06
2024-01-20T03:59:13.770Z,102717.06
2024-01-20T04:01:40.721Z,102717.06
2024-01-20T04:04:07.652Z,102717.97
2024-01-20T04:06:34.933Z,102725.94
2024-01-20T04:09:01.604Z,102720.63
2024-01-20T04:11:28.271Z,102726.81
2024-01-20T04:13:54.882Z,102718.88
2024-01-20T04:16:21.715Z,102719.78
2024-01-20T04:18:48.532Z,102725.06
2024-01-20T04:21:15.318Z,102728.63
2024-01-20T04:23:41.955Z,102731.28
2024-01-20T04:26:08.703Z,102730.38
2024-01-20T04:28:35.334Z,102736.56
2024-01-20T04:31:02.023Z,102731.28
2024-01-20T04:33:28.716Z,102726.00
2024-01-20T04:35:55.418Z,102729.56
2024-01-20T04:38:22.033Z,102726.91
2024-01-20T04:40:48.989Z,102728.69
2024-01-20T04:43:15.722Z,102733.97
2024-01-20T04:45:42.593Z,102729.56
2024-01-20T04:48:09.595Z,102730.44
2024-01-20T04:50:36.559Z,102720.72
2024-01-20T04:53:03.952Z,102730.47
2024-01-20T04:55:30.580Z,102726.03
2024-01-20T04:57:57.297Z,102727.78
2024-01-20T05:00:24.760Z,102736.66
2024-01-20T05:02:51.666Z,102748.13
2024-01-20T05:05:18.352Z,102745.47
2024-01-20T05:07:46.121Z,102750.75
2024-01-20T05:10:12.794Z,102749.00
2024-01-20T05:12:39.527Z,102751.63
2024-01-20T05:15:12.024Z,102759.56
2024-01-20T05:17:38.911Z,102755.13
2024-01-20T05:20:06.767Z,102760.44
2024-01-20T05:22:33.827Z,102764.00
2024-01-20T05:25:00.836Z,102765.78
2024-01-20T05:27:27.751Z,102771.09
2024-01-20T05:29:54.445Z,102771.97
2024-01-20T05:32:21.454Z,102773.72
2024-01-20T05:34:48.191Z,102772.84
2024-01-20T05:37:15.047Z,102778.13
2024-01-20T05:39:41.655Z,102780.78
2024-01-20T05:42:08.325Z,102771.03
2024-01-20T05:44:35.201Z,102776.31
2024-01-20T05:47:01.821Z,102778.09
2024-01-20T05:49:29.759Z,102778.09
2024-01-20T05:51:56.444Z,102775.44
2024-01-20T05:54:25.593Z,102773.66
2024-01-20T05:56:52.303Z,102776.31
2024-01-20T05:59:18.944Z,102773.66
2024-01-20T06:01:51.402Z,102778.97
2024-01-20T06:04:18.941Z,102775.44
2024-01-20T06:06:47.586Z,102777.19
2024-01-20T06:09:14.939Z,102775.41
2024-01-20T06:11:42.255Z,102778.97
2024-01-20T06:14:09.002Z,102783.41
2024-01-20T06:16:39.785Z,102792.25
2024-01-20T06:19:07.525Z,102794.00
2024-01-20T06:21:35.192Z,102807.25
2024-01-20T06:24:02.051Z,102804.59
2024-01-20T06:26:29.973Z,102811.72
2024-01-20T06:28:56.686Z,102809.09
2024-01-20T06:31:29.649Z,102808.22
2024-01-20T06:33:56.816Z,102799.34
2024-01-20T06:36:26.413Z,102801.09
2024-01-20T06:38:53.419Z,102800.22
2024-01-20T06:41:20.323Z,102802.00
2024-01-20T06:43:47.018Z,102796.69
2024-01-20T06:46:13.722Z,102801.09
2024-01-20T06:48:40.397Z,102801.13
2024-01-20T06:51:07.637Z,102809.09
2024-01-20T06:53:34.889Z,102806.44
2024-01-20T06:56:01.618Z,102800.25
2024-01-20T06:58:28.208Z,102802.91
2024-01-20T07:00:54.804Z,102799.38
2024-01-20T07:03:22.782Z,102809.09
2024-01-20T07:05:49.646Z,102810.88
2024-01-20T07:08:16.288Z,102814.44
2024-01-20T07:10:42.895Z,102806.47
2024-01-20T07:13:10.489Z,102811.78
2024-01-20T07:15:37.187Z,102815.34
2024-01-20T07:18:08.226Z,102810.91
2024-01-20T07:20:35.211Z,102818.88
2024-01-20T07:23:01.930Z,102807.38
2024-01-20T07:25:28.617Z,102817.97
2024-01-20T07:27:55.943Z,102822.38
2024-01-20T07:30:22.850Z,102821.50
2024-01-20T07:32:49.657Z,102826.81
2024-01-20T07:35:16.378Z,102820.63
2024-01-20T07:37:43.370Z,102826.81
2024-01-20T07:40:11.041Z,102834.75
2024-01-20T07:42:37.698Z,102830.34
2024-01-20T07:45:05.150Z,102823.25
2024-01-20T07:47:31.929Z,102823.25
2024-01-20T07:49:58.589Z,102824.13
2024-01-20T07:52:25.240Z,102829.44
2024-01-20T07:54:51.876Z,102836.50
2024-01-20T07:57:18.530Z,102829.44
2024-01-20T07:59:45.353Z,102836.50
2024-01-20T08:02:11.973Z,102837.41
2024-01-20T08:04:38.692Z,102842.69
2024-01-20T08:07:05.386Z,102847.09
2024-01-20T08:09:32.173Z,102843.59
2024-01-20T08:11:58.898Z,102850.63
2024-01-20T08:14:25.487Z,102855.91
2024-01-20T08:16:52.155Z,102846.13
2024-01-20T08:19:18.934Z,102853.16
2024-01-20T08:21:45.786Z,102852.25
2024-01-20T08:24:12.805Z,102846.88
2024-01-20T08:26:39.456Z,102846.84
2024-01-20T08:29:07.382Z,102844.16
2024-01-20T08:31:34.183Z,102851.19
2024-01-20T08:34:01.394Z,102844.06
2024-01-20T08:36:28.209Z,102839.59
2024-01-20T08:38:54.903Z,102843.13
2024-01-20T08:41:21.593Z,102836.00
2024-01-20T08:43:48.618Z,102849.22
2024-01-20T08:46:15.436Z,102856.28
2024-01-20T08:48:42.174Z,102853.56
2024-01-20T08:51:09.527Z,102859.75
2024-01-20T08:53:36.413Z,102861.50
2024-01-20T08:56:05.234Z,102857.06
2024-01-20T08:58:31.989Z,102858.81
2024-01-20T09:00:58.873Z,102865.91
2024-01-20T09:03:26.521Z,102882.69
2024-01-20T09:05:53.527Z,102866.75
2024-01-20T09:08:20.246Z,102880.91
2024-01-20T09:10:46.930Z,102886.19
2024-01-20T09:13:14.136Z,102888.84
2024-01-20T09:15:43.052Z,102890.59
2024-01-20T09:18:10.863Z,102884.38
2024-01-20T09:20:37.982Z,102892.31
2024-01-20T09:23:05.322Z,102888.72
2024-01-20T09:25:32.057Z,102883.41
2024-01-20T09:27:58.803Z,102894.88
2024-01-20T09:30:25.423Z,102897.50
2024-01-20T09:32:52.070Z,102897.50
2024-01-20T09:35:18.881Z,102895.69
2024-01-20T09:37:46.352Z,102899.22
2024-01-20T09:40:13.244Z,102901.84
2024-01-20T09:42:40.441Z,102900.06
2024-01-20T09:45:08.213Z,102895.59
2024-01-20T09:47:36.323Z,102898.22
2024-01-20T09:50:05.389Z,102912.41
2024-01-20T09:52:45.436Z,102929.22
2024-01-20T09:55:22.240Z,102924.75
2024-01-20T09:57:51.006Z,102927.38
2024-01-20T10:00:21.062Z,102927.34
2024-01-20T10:02:48.022Z,102928.19
2024-01-20T10:05:16.067Z,102925.50
2024-01-20T10:07:44.103Z,102936.97
2024-01-20T10:10:22.864Z,102928.09
2024-01-20T10:12:54.852Z,102928.94
2024-01-20T10:15:33.534Z,102929.84
2024-01-20T10:18:07.360Z,102931.59
2024-01-20T10:20:37.326Z,102929.81
2024-01-20T10:23:06.587Z,102934.25
2024-01-20T10:25:35.222Z,102937.78
2024-01-20T10:28:02.138Z,102936.91
2024-01-20T10:30:30.407Z,102931.59
2024-01-20T10:33:08.727Z,102930.63
2024-01-20T10:35:37.541Z,102940.41
2024-01-20T10:38:10.349Z,102943.94
2024-01-20T10:40:40.692Z,102941.28
2024-01-20T10:43:14.960Z,102921.75
2024-01-20T10:45:59.827Z,102944.81
2024-01-20T10:48:28.508Z,102945.66
2024-01-20T10:51:00.714Z,102934.97
2024-01-20T10:53:27.950Z,102936.72
2024-01-20T10:55:55.584Z,102939.38
2024-01-20T10:58:38.516Z,102946.44
2024-01-20T11:01:06.408Z,102943.75
2024-01-20T11:03:34.177Z,102950.84
2024-01-20T11:06:01.000Z,102935.75
2024-01-20T11:08:27.733Z,102942.84
2024-01-20T11:10:55.371Z,102939.28
2024-01-20T11:13:27.313Z,102935.75
2024-01-20T11:15:56.091Z,102929.59
2024-01-20T11:18:24.064Z,102927.84
2024-01-20T11:20:58.686Z,102928.75
2024-01-20T11:23:29.201Z,102928.78
2024-01-20T11:25:56.630Z,102926.13
2024-01-20T11:28:25.844Z,102932.31
2024-01-20T11:30:52.626Z,102931.38
2024-01-20T11:33:19.657Z,102933.13
2024-01-20T11:35:46.418Z,102919.84
2024-01-20T11:38:16.181Z,102918.91
2024-01-20T11:40:43.980Z,102914.44
2024-01-20T11:43:12.967Z,102915.31
2024-01-20T11:45:40.563Z,102916.19
2024-01-20T11:48:10.430Z,102916.16
2024-01-20T11:50:39.539Z,102909.03
2024-01-20T11:53:06.244Z,102909.84
2024-01-20T11:55:32.973Z,102906.28
2024-01-20T11:58:00.325Z,102900.06
2024-01-20T12:00:27.086Z,102888.53
2024-01-20T12:02:54.048Z,102885.75
2024-01-20T12:05:21.579Z,102886.63
2024-01-20T12:07:48.397Z,102883.94
2024-01-20T12:10:17.044Z,102884.81
2024-01-20T12:12:45.060Z,102889.28
2024-01-20T12:15:12.117Z,102883.97
2024-01-20T12:17:38.831Z,102876.88
2024-01-20T12:20:06.245Z,102876.91
2024-01-20T12:22:33.407Z,102867.97
2024-01-20T12:25:00.732Z,102868.88
2024-01-20T12:27:27.989Z,102866.19
2024-01-20T12:29:55.758Z,102863.53
2024-01-20T12:32:22.539Z,102853.78
2024-01-20T12:34:49.427Z,102852.88
2024-01-20T12:37:16.000Z,102854.63
2024-01-20T12:39:43.050Z,102859.03
2024-01-20T12:42:10.432Z,102860.81
2024-01-20T12:44:37.030Z,102854.66
2024-01-20T12:47:04.188Z,102852.00
2024-01-20T12:49:31.936Z,102857.34
2024-01-20T12:51:59.121Z,102856.53
2024-01-20T12:54:26.023Z,102855.66
2024-01-20T12:56:52.693Z,102847.66
2024-01-20T12:59:19.337Z,102848.50
2024-01-20T13:01:45.968Z,102844.94
2024-01-20T13:04:13.091Z,102836.06
2024-01-20T13:06:39.850Z,102836.03
2024-01-20T13:09:10.082Z,102825.34
2024-01-20T13:11:37.695Z,102816.41
2024-01-20T13:14:04.332Z,102811.91
2024-01-20T13:16:34.169Z,102817.16
2024-01-20T13:19:01.797Z,102815.34
2024-01-20T13:21:28.678Z,102817.13
2024-01-20T13:23:55.378Z,102810.00
2024-01-20T13:26:22.673Z,102816.19
2024-01-20T13:28:49.776Z,102815.25
2024-01-20T13:31:17.694Z,102811.63
2024-01-20T13:33:45.466Z,102811.63
2024-01-20T13:36:12.116Z,102824.88
2024-01-20T13:38:39.141Z,102811.50
2024-01-20T13:41:06.433Z,102821.19
2024-01-20T13:43:34.132Z,102822.00
2024-01-20T13:46:01.032Z,102817.47
2024-01-20T13:48:27.885Z,102819.13
2024-01-20T13:50:54.741Z,102820.88
2024-01-20T13:53:21.413Z,102823.44
2024-01-20T13:55:48.114Z,102819.84
2024-01-20T13:58:14.705Z,102822.44
2024-01-20T14:00:42.544Z,102816.22
2024-01-20T14:03:10.637Z,102821.50
2024-01-20T14:05:37.338Z,102815.31
2024-01-20T14:08:04.367Z,102821.53
2024-01-20T14:10:30.995Z,102813.59
2024-01-20T14:12:59.435Z,102817.16
2024-01-20T14:15:26.855Z,102810.94
2024-01-20T14:17:53.600Z,102806.50
2024-01-20T14:20:20.301Z,102802.94
2024-01-20T14:22:46.909Z,102803.84
2024-01-20T14:25:15.070Z,102800.31
2024-01-20T14:27:41.789Z,102812.75
2024-01-20T14:30:09.091Z,102807.44
2024-01-20T14:32:35.928Z,102811.00
2024-01-20T14:35:02.722Z,102805.69
2024-01-20T14:37:29.338Z,102798.63
2024-01-20T14:39:55.917Z,102796.88
2024-01-20T14:42:22.481Z,102803.06
2024-01-20T14:44:49.139Z,102803.09
2024-01-20T14:47:15.975Z,102796.84
2024-01-20T14:49:43.061Z,102808.38
2024-01-20T14:52:10.524Z,102811.91
2024-01-20T14:54:38.885Z,102816.34
2024-01-20T14:57:05.710Z,102816.38
2024-01-20T14:59:32.318Z,102812.88
2024-01-20T15:01:58.986Z,102819.97
2024-01-20T15:04:25.746Z,102823.56
2024-01-20T15:06:52.532Z,102824.50
2024-01-20T15:09:19.315Z,102828.97
2024-01-20T15:11:45.957Z,102826.34
2024-01-20T15:14:13.023Z,102821.94
2024-01-20T15:16:39.625Z,102828.19
2024-01-20T15:19:07.084Z,102822.91
2024-01-20T15:21:34.356Z,102822.94
2024-01-20T15:24:01.096Z,102823.88
2024-01-20T15:26:27.764Z,102821.25
2024-01-20T15:28:54.458Z,102833.72
2024-01-20T15:31:21.108Z,102830.22
2024-01-20T15:33:47.852Z,102826.72
2024-01-20T15:36:15.587Z,102834.69
2024-01-20T15:38:42.322Z,102831.22
2024-01-20T15:41:10.156Z,102824.16
2024-01-20T15:43:36.821Z,102822.44
2024-01-20T15:46:03.508Z,102812.69
2024-01-20T15:48:30.972Z,102818.94
2024-01-20T15:50:57.860Z,102822.50
2024-01-20T15:53:24.433Z,102824.31
2024-01-20T15:55:51.099Z,102822.56
2024-01-20T15:58:17.722Z,102808.41
2024-01-20T16:00:47.380Z,102807.56
2024-01-20T16:03:14.562Z,102810.28
2024-01-20T16:05:41.308Z,102813.88
2024-01-20T16:08:08.104Z,102807.69
2024-01-20T16:10:35.485Z,102806.88
2024-01-20T16:13:02.452Z,102818.44
2024-01-20T16:15:29.063Z,102818.47
2024-01-20T16:17:56.305Z,102805.16
2024-01-20T16:20:23.178Z,102817.63
2024-01-20T16:22:49.824Z,102812.31
2024-01-20T16:25:16.469Z,102812.34
2024-01-20T16:27:44.036Z,102822.09
2024-01-20T16:30:10.911Z,102815.06
2024-01-20T16:32:37.665Z,102825.75
2024-01-20T16:35:05.283Z,102819.56
2024-01-20T16:37:31.997Z,102823.13
2024-01-20T16:40:02.074Z,102822.28
2024-01-20T16:42:29.119Z,102817.88
2024-01-20T16:44:56.127Z,102819.69
2024-01-20T16:47:25.446Z,102829.50
2024-01-20T16:49:52.119Z,102822.41
2024-01-20T16:52:18.794Z,102811.78
2024-01-20T16:54:45.632Z,102824.22
2024-01-20T16:57:13.416Z,102827.81
2024-01-20T16:59:39.982Z,102826.09
2024-01-20T17:02:07.616Z,102826.97
2024-01-20T17:04:34.486Z,102824.31
2024-01-20T17:07:01.376Z,102823.41
2024-01-20T17:09:27.926Z,102826.97
2024-01-20T17:11:55.988Z,102823.44
2024-01-20T17:14:24.808Z,102826.13
2024-01-20T17:16:51.605Z,102820.84
2024-01-20T17:19:21.021Z,102810.22
2024-01-20T17:21:50.283Z,102808.47
2024-01-20T17:24:17.761Z,102811.19
2024-01-20T17:26:45.305Z,102809.44
2024-01-20T17:29:11.994Z,102813.00
2024-01-20T17:31:39.255Z,102813.91
2024-01-20T17:34:06.128Z,102818.38
2024-01-20T17:36:33.502Z,102813.06
2024-01-20T17:39:01.536Z,102811.31
2024-01-20T17:41:29.217Z,102812.25
2024-01-20T17:43:55.924Z,102802.53
2024-01-20T17:46:22.600Z,102791.97
2024-01-20T17:48:49.754Z,102796.41
2024-01-20T17:51:16.707Z,102804.41
2024-01-20T17:53:44.057Z,102796.47
2024-01-20T17:56:10.762Z,102800.00
2024-01-20T17:58:37.380Z,102788.47
2024-01-20T18:01:06.125Z,102799.13
2024-01-20T18:03:34.441Z,102799.16
2024-01-20T18:06:01.379Z,102809.81
2024-01-20T18:08:28.164Z,102806.28
2024-01-20T18:10:55.321Z,102803.66
2024-01-20T18:13:23.147Z,102802.81
2024-01-20T18:15:49.937Z,102798.44
2024-01-20T18:18:19.602Z,102796.72
2024-01-20T18:20:46.260Z,102799.38
2024-01-20T18:23:13.328Z,102785.25
2024-01-20T18:25:39.886Z,102788.78
2024-01-20T18:28:07.394Z,102784.38
2024-01-20T18:30:35.215Z,102775.53
2024-01-20T18:33:02.000Z,102778.19
2024-01-20T18:35:29.167Z,102781.72
2024-01-20T18:37:55.948Z,102786.09
2024-01-20T18:40:22.658Z,102782.56
2024-01-20T18:42:50.584Z,102779.91
2024-01-20T18:45:17.788Z,102786.09
2024-01-20T18:47:46.727Z,102788.75
2024-01-20T18:50:19.710Z,102786.97
2024-01-20T18:52:46.577Z,102797.59
2024-01-20T18:55:13.447Z,102789.63
2024-01-20T18:57:40.234Z,102790.47
2024-01-20T19:00:07.483Z,102791.34
2024-01-20T19:02:36.259Z,102793.09
2024-01-20T19:05:03.089Z,102789.56
2024-01-20T19:07:29.973Z,102786.94
2024-01-20T19:09:56.637Z,102777.25
2024-01-20T19:12:23.317Z,102787.00
2024-01-20T19:14:51.829Z,102788.78
2024-01-20T19:17:18.626Z,102782.59
2024-01-20T19:19:45.804Z,102782.63
2024-01-20T19:22:13.407Z,102782.63
2024-01-20T19:24:40.188Z,102772.88
2024-01-20T19:27:07.642Z,102766.72
2024-01-20T19:29:35.165Z,102769.38
2024-01-20T19:32:01.769Z,102771.16
2024-01-20T19:34:28.635Z,102765.84
2024-01-20T19:36:55.432Z,102760.53
2024-01-20T19:39:22.971Z,102753.47
2024-01-20T19:41:49.701Z,102742.88
2024-01-20T19:44:16.395Z,102741.13
2024-01-20T19:46:43.972Z,102733.19
2024-01-20T19:49:11.109Z,102741.16
2024-01-20T19:51:42.178Z,102735.88
2024-01-20T19:54:14.780Z,102731.47
2024-01-20T19:56:45.843Z,102732.38
2024-01-20T19:59:17.516Z,102727.09
2024-01-20T20:01:49.077Z,102728.88
2024-01-20T20:04:17.202Z,102728.88
2024-01-20T20:06:46.388Z,102723.56
2024-01-20T20:09:17.865Z,102725.34
2024-01-20T20:11:45.658Z,102720.00
2024-01-20T20:14:13.231Z,102713.81
2024-01-20T20:16:41.190Z,102714.66
2024-01-20T20:19:08.487Z,102714.66
2024-01-20T20:21:35.680Z,102710.22
2024-01-20T20:24:02.438Z,102700.50
2024-01-20T20:26:29.177Z,102696.97
2024-01-20T20:28:55.851Z,102679.28
2024-01-20T20:31:23.536Z,102681.97
2024-01-20T20:33:51.419Z,102678.47
2024-01-20T20:36:20.460Z,102667.91
2024-01-20T20:38:47.442Z,102667.09
2024-01-20T20:41:14.618Z,102667.09
2024-01-20T20:43:41.329Z,102660.94
2024-01-20T20:46:08.861Z,102663.63
2024-01-20T20:48:35.624Z,102665.44
2024-01-20T20:51:02.295Z,102668.09
2024-01-20T20:53:28.982Z,102662.81
2024-01-20T20:55:55.617Z,102663.72
2024-01-20T20:58:22.363Z,102667.28
2024-01-20T21:00:49.025Z,102663.75
2024-01-20T21:03:15.948Z,102662.00
2024-01-20T21:05:44.204Z,102668.22
2024-01-20T21:08:10.850Z,102668.22
2024-01-20T21:10:37.425Z,102653.16
2024-01-20T21:13:04.518Z,102647.88
2024-01-20T21:15:31.366Z,102644.38
2024-01-20T21:17:58.213Z,102636.41
2024-01-20T21:20:24.949Z,102639.91
2024-01-20T21:22:51.646Z,102634.56
2024-01-20T21:25:19.039Z,102628.38
2024-01-20T21:27:46.882Z,102632.78
2024-01-20T21:30:14.639Z,102627.50
2024-01-20T21:32:41.831Z,102632.75
2024-01-20T21:35:09.353Z,102615.97
2024-01-20T21:37:36.075Z,102612.47
2024-01-20T21:40:02.791Z,102604.47
2024-01-20T21:42:29.437Z,102616.00
2024-01-20T21:45:00.591Z,102609.78
2024-01-20T21:47:30.097Z,102612.41
2024-01-20T21:50:04.467Z,102606.19
2024-01-20T21:52:31.217Z,102595.56
2024-01-20T21:55:00.816Z,102593.78
2024-01-20T21:57:27.493Z,102597.31
2024-01-20T21:59:54.242Z,102582.25
2024-01-20T22:02:20.933Z,102583.13
2024-01-20T22:04:47.638Z,102578.69
2024-01-20T22:07:14.757Z,102579.53
2024-01-20T22:09:41.441Z,102586.56
2024-01-20T22:12:08.152Z,102587.44
2024-01-20T22:14:35.268Z,102585.66
2024-01-20T22:17:02.055Z,102589.22
2024-01-20T22:19:28.878Z,102589.19
2024-01-20T22:21:55.588Z,102583.88
2024-01-20T22:24:22.271Z,102581.22
2024-01-20T22:26:49.068Z,102572.38
2024-01-20T22:29:24.262Z,102571.50
2024-01-20T22:31:57.560Z,102560.88
2024-01-20T22:34:30.894Z,102557.31
2024-01-20T22:37:00.247Z,102544.00
2024-01-20T22:39:30.103Z,102533.38
2024-01-20T22:41:56.786Z,102535.16
2024-01-20T22:44:23.841Z,102532.50
2024-01-20T22:46:51.003Z,102520.06
2024-01-20T22:49:17.859Z,102520.94
2024-01-20T22:51:45.667Z,102520.91
2024-01-20T22:54:18.523Z,102502.31
2024-01-20T22:56:45.713Z,102506.72
2024-01-20T22:59:12.382Z,102504.91
2024-01-20T23:01:40.659Z,102497.81
2024-01-20T23:04:07.470Z,102489.88
2024-01-20T23:06:34.394Z,102496.06
2024-01-20T23:09:03.511Z,102491.63
2024-01-20T23:11:30.745Z,102488.09
2024-01-20T23:13:57.567Z,102488.09
2024-01-20T23:16:24.432Z,102480.13
2024-01-20T23:18:51.401Z,102469.50
2024-01-20T23:21:18.062Z,102467.69
2024-01-20T23:23:45.653Z,102467.66
2024-01-20T23:26:15.740Z,102471.13
2024-01-20T23:28:45.161Z,102470.16
2024-01-20T23:31:12.204Z,102464.84
2024-01-20T23:33:39.067Z,102463.94
2024-01-20T23:36:07.127Z,102457.72
2024-01-20T23:38:34.384Z,102455.03
2024-01-20T23:41:01.084Z,102448.81
2024-01-20T23:43:27.779Z,102448.78
2024-01-20T23:45:54.699Z,102447.00
2024-01-20T23:48:21.407Z,102440.81
2024-01-20T23:50:49.019Z,102435.50
2024-01-20T23:53:15.759Z,102435.50
2024-01-20T23:55:43.175Z,102426.66
2024-01-20T23:58:10.875Z,102433.72
